sensor_id;sensor_type;location;lat;lon;timestamp;pressure;altitude;pressure_sealevel;temperature;humidity
57094;BME280;42970;50.996;3.706;2023-08-07T00:01:47;47171.91;;;-146.65;91.69
57094;BME280;42970;50.996;3.706;2023-08-07T00:04:12;47171.91;;;-146.65;92.11
57094;BME280;42970;50.996;3.706;2023-08-07T00:06:38;47169.91;;;-146.65;92.21
57094;BME280;42970;50.996;3.706;2023-08-07T00:09:03;47171.91;;;-146.65;92.05
57094;BME280;42970;50.996;3.706;2023-08-07T00:11:29;47171.91;;;-146.65;91.94
57094;BME280;42970;50.996;3.706;2023-08-07T00:13:54;47175.91;;;-146.65;91.93
57094;BME280;42970;50.996;3.706;2023-08-07T00:16:20;47173.91;;;-146.65;91.84
57094;BME280;42970;50.996;3.706;2023-08-07T00:18:45;47175.91;;;-146.65;92.03
57094;BME280;42970;50.996;3.706;2023-08-07T00:21:11;47173.91;;;-146.65;91.99
57094;BME280;42970;50.996;3.706;2023-08-07T00:23:37;47173.91;;;-146.65;92.04
57094;BME280;42970;50.996;3.706;2023-08-07T00:26:02;47175.91;;;-146.65;92.39
57094;BME280;42970;50.996;3.706;2023-08-07T00:28:27;47171.91;;;-146.65;92.55
57094;BME280;42970;50.996;3.706;2023-08-07T00:30:54;47177.91;;;-146.65;92.46
57094;BME280;42970;50.996;3.706;2023-08-07T00:33:20;47173.91;;;-146.65;92.20
57094;BME280;42970;50.996;3.706;2023-08-07T00:35:45;47173.91;;;-146.65;92.07
57094;BME280;42970;50.996;3.706;2023-08-07T00:38:10;47171.91;;;-146.65;92.04
57094;BME280;42970;50.996;3.706;2023-08-07T00:40:38;47169.91;;;-146.65;92.22
57094;BME280;42970;50.996;3.706;2023-08-07T00:43:04;47177.91;;;-146.65;92.23
57094;BME280;42970;50.996;3.706;2023-08-07T00:45:30;47175.91;;;-146.65;91.99
57094;BME280;42970;50.996;3.706;2023-08-07T00:47:59;47169.91;;;-146.65;92.00
57094;BME280;42970;50.996;3.706;2023-08-07T00:50:24;47175.91;;;-146.65;91.46
57094;BME280;42970;50.996;3.706;2023-08-07T00:52:49;47173.91;;;-146.65;91.59
57094;BME280;42970;50.996;3.706;2023-08-07T00:55:15;47169.91;;;-146.65;91.49
57094;BME280;42970;50.996;3.706;2023-08-07T00:57:40;47169.91;;;-146.65;91.82
57094;BME280;42970;50.996;3.706;2023-08-07T01:00:06;47173.91;;;-146.65;91.47
57094;BME280;42970;50.996;3.706;2023-08-07T01:02:32;47171.91;;;-146.65;91.39
57094;BME280;42970;50.996;3.706;2023-08-07T01:04:58;47173.91;;;-146.65;91.58
57094;BME280;42970;50.996;3.706;2023-08-07T01:07:23;47173.91;;;-146.65;91.25
57094;BME280;42970;50.996;3.706;2023-08-07T01:09:49;47175.91;;;-146.65;91.04
57094;BME280;42970;50.996;3.706;2023-08-07T01:14:51;47173.91;;;-146.65;90.79
57094;BME280;42970;50.996;3.706;2023-08-07T01:17:19;47173.91;;;-146.65;90.49
57094;BME280;42970;50.996;3.706;2023-08-07T01:19:45;47171.91;;;-146.65;90.36
57094;BME280;42970;50.996;3.706;2023-08-07T01:22:26;47171.91;;;-146.65;90.13
57094;BME280;42970;50.996;3.706;2023-08-07T01:24:56;47171.91;;;-146.65;90.20
57094;BME280;42970;50.996;3.706;2023-08-07T01:35:30;47169.91;;;-146.65;91.07
57094;BME280;42970;50.996;3.706;2023-08-07T01:37:57;47177.91;;;-146.65;91.06
57094;BME280;42970;50.996;3.706;2023-08-07T01:40:23;47171.91;;;-146.65;90.94
57094;BME280;42970;50.996;3.706;2023-08-07T01:42:49;47173.91;;;-146.65;90.86
57094;BME280;42970;50.996;3.706;2023-08-07T01:45:21;47171.91;;;-146.65;90.80
57094;BME280;42970;50.996;3.706;2023-08-07T01:47:47;47177.91;;;-146.65;90.83
57094;BME280;42970;50.996;3.706;2023-08-07T01:50:12;47173.91;;;-146.65;90.39
57094;BME280;42970;50.996;3.706;2023-08-07T01:52:38;47175.91;;;-146.65;90.13
57094;BME280;42970;50.996;3.706;2023-08-07T01:55:04;47173.91;;;-146.65;90.45
57094;BME280;42970;50.996;3.706;2023-08-07T01:57:29;47171.91;;;-146.65;90.92
57094;BME280;42970;50.996;3.706;2023-08-07T01:59:56;47173.91;;;-146.65;90.63
57094;BME280;42970;50.996;3.706;2023-08-07T02:02:21;47171.91;;;-146.65;90.32
57094;BME280;42970;50.996;3.706;2023-08-07T02:04:46;47173.91;;;-146.65;90.45
57094;BME280;42970;50.996;3.706;2023-08-07T02:07:12;47173.91;;;-146.65;90.41
57094;BME280;42970;50.996;3.706;2023-08-07T02:09:37;47173.91;;;-146.65;91.08
57094;BME280;42970;50.996;3.706;2023-08-07T02:12:03;47175.91;;;-146.65;90.71
57094;BME280;42970;50.996;3.706;2023-08-07T02:14:28;47173.91;;;-146.65;90.51
57094;BME280;42970;50.996;3.706;2023-08-07T02:16:54;47171.91;;;-146.65;90.11
57094;BME280;42970;50.996;3.706;2023-08-07T02:19:19;47175.91;;;-146.65;90.09
57094;BME280;42970;50.996;3.706;2023-08-07T02:21:45;47173.91;;;-146.65;90.02
57094;BME280;42970;50.996;3.706;2023-08-07T02:24:11;47173.91;;;-146.65;90.34
57094;BME280;42970;50.996;3.706;2023-08-07T02:26:36;47169.91;;;-146.65;89.98
57094;BME280;42970;50.996;3.706;2023-08-07T02:29:01;47177.91;;;-146.65;90.19
57094;BME280;42970;50.996;3.706;2023-08-07T02:31:28;47175.91;;;-146.65;90.10
57094;BME280;42970;50.996;3.706;2023-08-07T02:33:54;47171.91;;;-146.65;90.42
57094;BME280;42970;50.996;3.706;2023-08-07T02:36:19;47173.91;;;-146.65;90.62
57094;BME280;42970;50.996;3.706;2023-08-07T02:38:44;47175.91;;;-146.65;90.69
57094;BME280;42970;50.996;3.706;2023-08-07T02:41:10;47171.91;;;-146.65;90.93
57094;BME280;42970;50.996;3.706;2023-08-07T02:43:35;47171.91;;;-146.65;91.01
57094;BME280;42970;50.996;3.706;2023-08-07T02:46:01;47173.91;;;-146.65;90.44
57094;BME280;42970;50.996;3.706;2023-08-07T02:48:26;47167.88;;;-146.65;90.35
57094;BME280;42970;50.996;3.706;2023-08-07T02:50:51;47173.91;;;-146.65;90.51
57094;BME280;42970;50.996;3.706;2023-08-07T02:53:18;47173.91;;;-146.65;90.45
57094;BME280;42970;50.996;3.706;2023-08-07T02:55:43;47173.91;;;-146.65;90.19
57094;BME280;42970;50.996;3.706;2023-08-07T02:58:09;47169.91;;;-146.65;90.54
57094;BME280;42970;50.996;3.706;2023-08-07T03:00:34;47177.91;;;-146.65;90.56
57094;BME280;42970;50.996;3.706;2023-08-07T03:03:00;47173.91;;;-146.65;90.78
57094;BME280;42970;50.996;3.706;2023-08-07T03:05:25;47173.91;;;-146.65;90.63
57094;BME280;42970;50.996;3.706;2023-08-07T03:07:51;47173.91;;;-146.65;90.63
57094;BME280;42970;50.996;3.706;2023-08-07T03:10:16;47175.91;;;-146.65;90.96
57094;BME280;42970;50.996;3.706;2023-08-07T03:12:41;47173.91;;;-146.65;90.66
57094;BME280;42970;50.996;3.706;2023-08-07T03:15:07;47171.91;;;-146.65;90.70
57094;BME280;42970;50.996;3.706;2023-08-07T03:17:32;47171.91;;;-146.65;90.62
57094;BME280;42970;50.996;3.706;2023-08-07T03:19:57;47171.91;;;-146.65;90.25
57094;BME280;42970;50.996;3.706;2023-08-07T03:22:23;47173.91;;;-146.65;90.29
57094;BME280;42970;50.996;3.706;2023-08-07T03:24:49;47169.91;;;-146.65;90.45
57094;BME280;42970;50.996;3.706;2023-08-07T03:27:14;47173.91;;;-146.65;90.45
57094;BME280;42970;50.996;3.706;2023-08-07T03:29:40;47177.91;;;-146.65;90.61
57094;BME280;42970;50.996;3.706;2023-08-07T03:32:05;47169.91;;;-146.65;90.96
57094;BME280;42970;50.996;3.706;2023-08-07T03:34:30;47169.91;;;-146.65;91.01
57094;BME280;42970;50.996;3.706;2023-08-07T03:36:56;47175.91;;;-146.65;90.36
57094;BME280;42970;50.996;3.706;2023-08-07T03:39:21;47173.91;;;-146.65;90.60
57094;BME280;42970;50.996;3.706;2023-08-07T03:41:46;47173.91;;;-146.65;90.94
57094;BME280;42970;50.996;3.706;2023-08-07T03:44:12;47173.91;;;-146.65;91.25
57094;BME280;42970;50.996;3.706;2023-08-07T03:46:37;47173.91;;;-146.65;91.32
57094;BME280;42970;50.996;3.706;2023-08-07T03:49:02;47173.91;;;-146.65;90.94
57094;BME280;42970;50.996;3.706;2023-08-07T03:51:28;47171.91;;;-146.65;91.39
57094;BME280;42970;50.996;3.706;2023-08-07T03:53:54;47173.91;;;-146.65;91.26
57094;BME280;42970;50.996;3.706;2023-08-07T03:56:20;47171.91;;;-146.65;91.95
57094;BME280;42970;50.996;3.706;2023-08-07T03:58:45;47171.91;;;-146.65;91.89
57094;BME280;42970;50.996;3.706;2023-08-07T04:01:10;47171.91;;;-146.65;91.94
57094;BME280;42970;50.996;3.706;2023-08-07T04:03:36;47169.91;;;-146.65;91.75
57094;BME280;42970;50.996;3.706;2023-08-07T04:06:02;47165.88;;;-146.65;91.53
57094;BME280;42970;50.996;3.706;2023-08-07T04:08:27;47173.91;;;-146.65;91.99
57094;BME280;42970;50.996;3.706;2023-08-07T04:11:02;47173.91;;;-146.65;91.95
57094;BME280;42970;50.996;3.706;2023-08-07T04:13:28;47175.91;;;-146.65;91.74
57094;BME280;42970;50.996;3.706;2023-08-07T04:15:53;47171.91;;;-146.65;91.44
57094;BME280;42970;50.996;3.706;2023-08-07T04:18:19;47171.91;;;-146.65;91.96
57094;BME280;42970;50.996;3.706;2023-08-07T04:20:54;47175.91;;;-146.65;92.31
57094;BME280;42970;50.996;3.706;2023-08-07T04:23:20;47171.91;;;-146.65;92.37
57094;BME280;42970;50.996;3.706;2023-08-07T04:25:46;47173.91;;;-146.65;92.24
57094;BME280;42970;50.996;3.706;2023-08-07T04:28:12;47173.91;;;-146.65;92.47
57094;BME280;42970;50.996;3.706;2023-08-07T04:30:37;47171.91;;;-146.65;92.69
57094;BME280;42970;50.996;3.706;2023-08-07T04:33:03;47173.91;;;-146.65;92.82
57094;BME280;42970;50.996;3.706;2023-08-07T04:35:30;47173.91;;;-146.65;92.82
57094;BME280;42970;50.996;3.706;2023-08-07T04:37:56;47173.91;;;-146.65;92.75
57094;BME280;42970;50.996;3.706;2023-08-07T04:40:21;47173.91;;;-146.65;93.17
57094;BME280;42970;50.996;3.706;2023-08-07T04:42:48;47173.91;;;-146.65;93.20
57094;BME280;42970;50.996;3.706;2023-08-07T04:45:14;47175.91;;;-146.65;93.20
57094;BME280;42970;50.996;3.706;2023-08-07T04:47:39;47171.91;;;-146.65;92.98
57094;BME280;42970;50.996;3.706;2023-08-07T04:50:04;47175.91;;;-146.65;93.21
57094;BME280;42970;50.996;3.706;2023-08-07T04:52:30;47171.91;;;-146.65;93.35
57094;BME280;42970;50.996;3.706;2023-08-07T04:54:55;47169.91;;;-146.65;93.34
57094;BME280;42970;50.996;3.706;2023-08-07T04:57:21;47173.91;;;-146.65;93.64
57094;BME280;42970;50.996;3.706;2023-08-07T04:59:46;47169.91;;;-146.65;93.94
57094;BME280;42970;50.996;3.706;2023-08-07T05:02:12;47169.91;;;-146.65;93.51
57094;BME280;42970;50.996;3.706;2023-08-07T05:04:37;47173.91;;;-146.65;93.67
57094;BME280;42970;50.996;3.706;2023-08-07T05:07:02;47175.91;;;-146.65;93.70
57094;BME280;42970;50.996;3.706;2023-08-07T05:09:28;47173.91;;;-146.65;93.49
57094;BME280;42970;50.996;3.706;2023-08-07T05:11:53;47173.91;;;-146.65;93.36
57094;BME280;42970;50.996;3.706;2023-08-07T05:14:19;47173.91;;;-146.65;93.25
57094;BME280;42970;50.996;3.706;2023-08-07T05:16:44;47171.91;;;-146.65;93.08
57094;BME280;42970;50.996;3.706;2023-08-07T05:19:09;47175.91;;;-146.65;93.07
57094;BME280;42970;50.996;3.706;2023-08-07T05:21:35;47173.91;;;-146.65;93.04
57094;BME280;42970;50.996;3.706;2023-08-07T05:24:00;47177.91;;;-146.65;93.19
57094;BME280;42970;50.996;3.706;2023-08-07T05:26:25;47173.91;;;-146.65;93.11
57094;BME280;42970;50.996;3.706;2023-08-07T05:28:50;47171.91;;;-146.65;93.15
57094;BME280;42970;50.996;3.706;2023-08-07T05:31:16;47173.91;;;-146.65;93.22
57094;BME280;42970;50.996;3.706;2023-08-07T05:33:41;47173.91;;;-146.65;93.24
57094;BME280;42970;50.996;3.706;2023-08-07T05:36:07;47171.91;;;-146.65;93.20
57094;BME280;42970;50.996;3.706;2023-08-07T05:38:32;47175.91;;;-146.65;93.19
57094;BME280;42970;50.996;3.706;2023-08-07T05:40:58;47173.91;;;-146.65;93.05
57094;BME280;42970;50.996;3.706;2023-08-07T05:43:23;47173.91;;;-146.65;93.12
57094;BME280;42970;50.996;3.706;2023-08-07T05:45:48;47169.91;;;-146.65;93.20
57094;BME280;42970;50.996;3.706;2023-08-07T05:48:14;47173.91;;;-146.65;93.15
57094;BME280;42970;50.996;3.706;2023-08-07T05:50:39;47171.91;;;-146.65;92.98
57094;BME280;42970;50.996;3.706;2023-08-07T05:53:05;47173.91;;;-146.65;92.89
57094;BME280;42970;50.996;3.706;2023-08-07T05:55:30;47169.91;;;-146.65;92.82
57094;BME280;42970;50.996;3.706;2023-08-07T05:57:56;47173.91;;;-146.65;92.72
57094;BME280;42970;50.996;3.706;2023-08-07T06:00:21;47175.91;;;-146.65;92.59
57094;BME280;42970;50.996;3.706;2023-08-07T06:02:46;47173.91;;;-146.65;92.27
57094;BME280;42970;50.996;3.706;2023-08-07T06:05:12;47175.91;;;-146.65;92.11
57094;BME280;42970;50.996;3.706;2023-08-07T06:07:39;47173.91;;;-146.65;91.96
57094;BME280;42970;50.996;3.706;2023-08-07T06:10:05;47169.91;;;-146.65;92.07
57094;BME280;42970;50.996;3.706;2023-08-07T06:12:30;47173.91;;;-146.65;91.80
57094;BME280;42970;50.996;3.706;2023-08-07T06:14:56;47173.91;;;-146.65;91.74
57094;BME280;42970;50.996;3.706;2023-08-07T06:17:21;47175.91;;;-146.65;91.82
57094;BME280;42970;50.996;3.706;2023-08-07T06:19:46;47177.91;;;-146.65;91.80
57094;BME280;42970;50.996;3.706;2023-08-07T06:22:12;47173.91;;;-146.65;91.69
57094;BME280;42970;50.996;3.706;2023-08-07T06:24:37;47171.91;;;-146.65;90.97
57094;BME280;42970;50.996;3.706;2023-08-07T06:27:02;47171.91;;;-146.65;90.52
57094;BME280;42970;50.996;3.706;2023-08-07T06:29:28;47175.91;;;-146.65;90.31
57094;BME280;42970;50.996;3.706;2023-08-07T06:31:53;47175.91;;;-146.65;89.76
57094;BME280;42970;50.996;3.706;2023-08-07T06:34:19;47171.91;;;-146.65;89.55
57094;BME280;42970;50.996;3.706;2023-08-07T06:36:44;47175.91;;;-146.65;89.36
57094;BME280;42970;50.996;3.706;2023-08-07T06:39:09;47173.91;;;-146.65;89.39
57094;BME280;42970;50.996;3.706;2023-08-07T06:41:35;47175.91;;;-146.65;88.90
57094;BME280;42970;50.996;3.706;2023-08-07T06:44:00;47175.91;;;-146.65;88.03
57094;BME280;42970;50.996;3.706;2023-08-07T06:46:26;47177.91;;;-146.65;88.20
57094;BME280;42970;50.996;3.706;2023-08-07T06:48:52;47175.91;;;-146.65;87.07
57094;BME280;42970;50.996;3.706;2023-08-07T06:51:18;47175.91;;;-146.65;87.97
57094;BME280;42970;50.996;3.706;2023-08-07T06:53:44;47177.91;;;-146.65;88.01
57094;BME280;42970;50.996;3.706;2023-08-07T06:56:09;47177.91;;;-146.65;87.10
57094;BME280;42970;50.996;3.706;2023-08-07T06:58:34;47173.91;;;-146.65;85.93
57094;BME280;42970;50.996;3.706;2023-08-07T07:01:00;47169.91;;;-146.65;86.21
57094;BME280;42970;50.996;3.706;2023-08-07T07:03:25;47177.91;;;-146.65;85.85
57094;BME280;42970;50.996;3.706;2023-08-07T07:05:50;47173.91;;;-146.65;85.05
57094;BME280;42970;50.996;3.706;2023-08-07T07:08:16;47173.91;;;-146.65;84.52
57094;BME280;42970;50.996;3.706;2023-08-07T07:10:41;47175.91;;;-146.65;85.67
57094;BME280;42970;50.996;3.706;2023-08-07T07:13:07;47175.91;;;-146.65;84.12
57094;BME280;42970;50.996;3.706;2023-08-07T07:15:34;47175.91;;;-146.65;83.48
57094;BME280;42970;50.996;3.706;2023-08-07T07:18:00;47177.91;;;-146.65;83.86
57094;BME280;42970;50.996;3.706;2023-08-07T07:20:25;47175.91;;;-146.65;82.44
57094;BME280;42970;50.996;3.706;2023-08-07T07:22:52;47175.91;;;-146.65;82.61
57094;BME280;42970;50.996;3.706;2023-08-07T07:25:17;47175.91;;;-146.65;82.49
57094;BME280;42970;50.996;3.706;2023-08-07T07:27:42;47173.91;;;-146.65;83.13
57094;BME280;42970;50.996;3.706;2023-08-07T07:30:08;47171.91;;;-146.65;82.64
57094;BME280;42970;50.996;3.706;2023-08-07T07:32:33;47175.91;;;-146.65;82.51
57094;BME280;42970;50.996;3.706;2023-08-07T07:34:59;47171.91;;;-146.65;81.94
57094;BME280;42970;50.996;3.706;2023-08-07T07:37:24;47177.91;;;-146.65;79.23
57094;BME280;42970;50.996;3.706;2023-08-07T07:39:49;47177.91;;;-146.65;79.65
57094;BME280;42970;50.996;3.706;2023-08-07T07:42:14;47173.91;;;-146.65;76.42
57094;BME280;42970;50.996;3.706;2023-08-07T07:44:40;47177.91;;;-146.65;76.65
57094;BME280;42970;50.996;3.706;2023-08-07T07:47:06;47173.91;;;-146.65;77.62
57094;BME280;42970;50.996;3.706;2023-08-07T07:49:32;47173.91;;;-146.65;72.79
57094;BME280;42970;50.996;3.706;2023-08-07T07:51:57;47175.91;;;-146.65;74.10
57094;BME280;42970;50.996;3.706;2023-08-07T07:54:22;47175.91;;;-146.65;74.18
57094;BME280;42970;50.996;3.706;2023-08-07T07:56:48;47179.91;;;-146.65;72.26
57094;BME280;42970;50.996;3.706;2023-08-07T07:59:13;47171.91;;;-146.65;71.13
57094;BME280;42970;50.996;3.706;2023-08-07T08:01:38;47173.91;;;-146.65;70.66
57094;BME280;42970;50.996;3.706;2023-08-07T08:04:04;47173.91;;;-146.65;69.13
57094;BME280;42970;50.996;3.706;2023-08-07T08:06:29;47171.91;;;-146.65;69.46
57094;BME280;42970;50.996;3.706;2023-08-07T08:08:56;47175.91;;;-146.65;68.85
57094;BME280;42970;50.996;3.706;2023-08-07T08:11:21;47173.91;;;-146.65;69.67
57094;BME280;42970;50.996;3.706;2023-08-07T08:13:46;47175.91;;;-146.65;68.73
57094;BME280;42970;50.996;3.706;2023-08-07T08:16:12;47175.91;;;-146.65;67.54
57094;BME280;42970;50.996;3.706;2023-08-07T08:18:37;47177.91;;;-146.65;69.80
57094;BME280;42970;50.996;3.706;2023-08-07T08:21:02;47179.91;;;-146.65;63.75
57094;BME280;42970;50.996;3.706;2023-08-07T08:23:28;47175.91;;;-146.65;64.42
57094;BME280;42970;50.996;3.706;2023-08-07T08:25:53;47173.91;;;-146.65;57.88
57094;BME280;42970;50.996;3.706;2023-08-07T08:28:19;47175.91;;;-146.65;59.10
57094;BME280;42970;50.996;3.706;2023-08-07T08:30:44;47175.91;;;-146.65;60.80
57094;BME280;42970;50.996;3.706;2023-08-07T08:33:09;47175.91;;;-146.65;59.81
57094;BME280;42970;50.996;3.706;2023-08-07T08:35:37;47175.91;;;-146.65;57.16
57094;BME280;42970;50.996;3.706;2023-08-07T08:38:03;47177.91;;;-146.65;56.99
57094;BME280;42970;50.996;3.706;2023-08-07T08:40:28;47175.91;;;-146.65;58.01
57094;BME280;42970;50.996;3.706;2023-08-07T08:42:55;47171.91;;;-146.65;58.70
57094;BME280;42970;50.996;3.706;2023-08-07T08:45:22;47177.91;;;-146.65;59.12
57094;BME280;42970;50.996;3.706;2023-08-07T08:47:50;47179.91;;;-146.65;58.66
57094;BME280;42970;50.996;3.706;2023-08-07T08:50:16;47171.91;;;-146.65;59.66
57094;BME280;42970;50.996;3.706;2023-08-07T08:52:42;47171.91;;;-146.65;60.78
57094;BME280;42970;50.996;3.706;2023-08-07T08:55:09;47171.91;;;-146.65;61.58
57094;BME280;42970;50.996;3.706;2023-08-07T08:57:34;47177.91;;;-146.65;61.85
57094;BME280;42970;50.996;3.706;2023-08-07T09:00:00;47175.91;;;-146.65;60.60
57094;BME280;42970;50.996;3.706;2023-08-07T09:02:29;47175.91;;;-146.65;58.66
57094;BME280;42970;50.996;3.706;2023-08-07T09:04:54;47173.91;;;-146.65;59.42
57094;BME280;42970;50.996;3.706;2023-08-07T09:07:19;47173.91;;;-146.65;56.14
57094;BME280;42970;50.996;3.706;2023-08-07T09:09:45;47173.91;;;-146.65;55.54
57094;BME280;42970;50.996;3.706;2023-08-07T09:12:16;47173.91;;;-146.65;57.84
57094;BME280;42970;50.996;3.706;2023-08-07T09:14:41;47173.91;;;-146.65;60.56
57094;BME280;42970;50.996;3.706;2023-08-07T09:17:09;47177.91;;;-146.65;59.01
57094;BME280;42970;50.996;3.706;2023-08-07T09:19:37;47173.91;;;-146.65;55.76
57094;BME280;42970;50.996;3.706;2023-08-07T09:22:03;47175.91;;;-146.65;52.99
57094;BME280;42970;50.996;3.706;2023-08-07T09:24:28;47175.91;;;-146.65;53.01
57094;BME280;42970;50.996;3.706;2023-08-07T09:26:54;47175.91;;;-146.65;57.72
57094;BME280;42970;50.996;3.706;2023-08-07T09:29:20;47173.91;;;-146.65;55.27
57094;BME280;42970;50.996;3.706;2023-08-07T09:31:47;47171.91;;;-146.65;59.60
57094;BME280;42970;50.996;3.706;2023-08-07T09:34:12;47173.91;;;-146.65;56.23
57094;BME280;42970;50.996;3.706;2023-08-07T09:36:41;47171.91;;;-146.65;58.12
57094;BME280;42970;50.996;3.706;2023-08-07T09:39:07;47173.91;;;-146.65;58.24
57094;BME280;42970;50.996;3.706;2023-08-07T09:41:32;47177.91;;;-146.65;60.12
57094;BME280;42970;50.996;3.706;2023-08-07T09:44:00;47175.91;;;-146.65;59.03
57094;BME280;42970;50.996;3.706;2023-08-07T09:46:31;47173.91;;;-146.65;57.40
57094;BME280;42970;50.996;3.706;2023-08-07T09:49:02;47177.91;;;-146.65;52.86
57094;BME280;42970;50.996;3.706;2023-08-07T09:51:27;47175.91;;;-146.65;52.76
57094;BME280;42970;50.996;3.706;2023-08-07T09:54:05;47173.91;;;-146.65;52.02
57094;BME280;42970;50.996;3.706;2023-08-07T09:56:31;47171.91;;;-146.65;54.17
57094;BME280;42970;50.996;3.706;2023-08-07T09:58:56;47175.91;;;-146.65;55.21
57094;BME280;42970;50.996;3.706;2023-08-07T10:01:23;47175.91;;;-146.65;54.95
57094;BME280;42970;50.996;3.706;2023-08-07T10:03:50;47177.91;;;-146.65;54.27
57094;BME280;42970;50.996;3.706;2023-08-07T10:06:17;47173.91;;;-146.65;55.22
57094;BME280;42970;50.996;3.706;2023-08-07T10:08:44;47173.91;;;-146.65;55.51
57094;BME280;42970;50.996;3.706;2023-08-07T10:11:09;47177.91;;;-146.65;56.86
57094;BME280;42970;50.996;3.706;2023-08-07T10:13:36;47173.91;;;-146.65;53.63
57094;BME280;42970;50.996;3.706;2023-08-07T10:16:01;47177.91;;;-146.65;53.41
57094;BME280;42970;50.996;3.706;2023-08-07T10:18:27;47177.91;;;-146.65;52.56
57094;BME280;42970;50.996;3.706;2023-08-07T10:20:53;47177.91;;;-146.65;51.44
57094;BME280;42970;50.996;3.706;2023-08-07T10:23:19;47173.91;;;-146.65;54.87
57094;BME280;42970;50.996;3.706;2023-08-07T10:25:46;47171.91;;;-146.65;50.97
57094;BME280;42970;50.996;3.706;2023-08-07T10:28:16;47173.91;;;-146.65;49.30
57094;BME280;42970;50.996;3.706;2023-08-07T10:30:43;47175.91;;;-146.65;46.88
57094;BME280;42970;50.996;3.706;2023-08-07T10:33:10;47173.91;;;-146.65;47.19
57094;BME280;42970;50.996;3.706;2023-08-07T10:35:36;47179.91;;;-146.65;47.53
57094;BME280;42970;50.996;3.706;2023-08-07T10:38:05;47181.91;;;-146.65;48.72
57094;BME280;42970;50.996;3.706;2023-08-07T10:40:30;47173.91;;;-146.65;48.02
57094;BME280;42970;50.996;3.706;2023-08-07T10:43:17;47179.91;;;-146.65;43.72
57094;BME280;42970;50.996;3.706;2023-08-07T10:45:42;47173.91;;;-146.65;44.85
57094;BME280;42970;50.996;3.706;2023-08-07T10:48:08;47173.91;;;-146.65;48.48
57094;BME280;42970;50.996;3.706;2023-08-07T10:50:35;47171.91;;;-146.65;52.55
57094;BME280;42970;50.996;3.706;2023-08-07T10:53:18;47173.91;;;-146.65;51.42
57094;BME280;42970;50.996;3.706;2023-08-07T10:55:46;47175.91;;;-146.65;50.71
57094;BME280;42970;50.996;3.706;2023-08-07T10:58:25;47175.91;;;-146.65;51.08
57094;BME280;42970;50.996;3.706;2023-08-07T11:00:55;47177.91;;;-146.65;53.63
57094;BME280;42970;50.996;3.706;2023-08-07T11:03:36;47173.91;;;-146.65;55.63
57094;BME280;42970;50.996;3.706;2023-08-07T11:06:01;47169.91;;;-146.65;52.00
57094;BME280;42970;50.996;3.706;2023-08-07T11:08:27;47175.91;;;-146.65;48.68
57094;BME280;42970;50.996;3.706;2023-08-07T11:10:53;47173.91;;;-146.65;45.68
57094;BME280;42970;50.996;3.706;2023-08-07T11:13:20;47175.91;;;-146.65;46.92
57094;BME280;42970;50.996;3.706;2023-08-07T11:15:46;47177.91;;;-146.65;52.26
57094;BME280;42970;50.996;3.706;2023-08-07T11:18:12;47175.91;;;-146.65;52.26
57094;BME280;42970;50.996;3.706;2023-08-07T11:20:37;47175.91;;;-146.65;54.12
57094;BME280;42970;50.996;3.706;2023-08-07T11:23:04;47173.91;;;-146.65;54.39
57094;BME280;42970;50.996;3.706;2023-08-07T11:25:30;47175.91;;;-146.65;54.56
57094;BME280;42970;50.996;3.706;2023-08-07T11:27:55;47173.91;;;-146.65;54.24
57094;BME280;42970;50.996;3.706;2023-08-07T11:30:21;47173.91;;;-146.65;47.46
57094;BME280;42970;50.996;3.706;2023-08-07T11:32:46;47175.91;;;-146.65;44.93
57094;BME280;42970;50.996;3.706;2023-08-07T11:35:12;47175.91;;;-146.65;47.90
57094;BME280;42970;50.996;3.706;2023-08-07T11:37:45;47173.91;;;-146.65;49.62
57094;BME280;42970;50.996;3.706;2023-08-07T11:40:11;47175.91;;;-146.65;46.83
57094;BME280;42970;50.996;3.706;2023-08-07T11:42:37;47173.91;;;-146.65;43.30
57094;BME280;42970;50.996;3.706;2023-08-07T11:45:03;47179.91;;;-146.65;45.46
57094;BME280;42970;50.996;3.706;2023-08-07T11:47:28;47177.91;;;-146.65;42.00
57094;BME280;42970;50.996;3.706;2023-08-07T11:49:53;47171.91;;;-146.65;43.51
57094;BME280;42970;50.996;3.706;2023-08-07T11:52:20;47175.91;;;-146.65;42.00
57094;BME280;42970;50.996;3.706;2023-08-07T11:54:47;47177.91;;;-146.65;41.39
57094;BME280;42970;50.996;3.706;2023-08-07T11:57:17;47179.91;;;-146.65;37.97
57094;BME280;42970;50.996;3.706;2023-08-07T11:59:47;47175.91;;;-146.65;39.10
57094;BME280;42970;50.996;3.706;2023-08-07T12:02:13;47173.91;;;-146.65;42.65
57094;BME280;42970;50.996;3.706;2023-08-07T12:04:39;47175.91;;;-146.65;44.51
57094;BME280;42970;50.996;3.706;2023-08-07T12:07:05;47175.91;;;-146.65;43.40
57094;BME280;42970;50.996;3.706;2023-08-07T12:09:30;47179.91;;;-146.65;45.71
57094;BME280;42970;50.996;3.706;2023-08-07T12:11:57;47177.91;;;-146.65;44.11
57094;BME280;42970;50.996;3.706;2023-08-07T12:14:28;47181.91;;;-146.65;42.29
57094;BME280;42970;50.996;3.706;2023-08-07T12:16:54;47175.91;;;-146.65;39.18
57094;BME280;42970;50.996;3.706;2023-08-07T12:19:19;47181.91;;;-146.65;40.00
57094;BME280;42970;50.996;3.706;2023-08-07T12:21:45;47175.91;;;-146.65;38.84
57094;BME280;42970;50.996;3.706;2023-08-07T12:24:10;47177.91;;;-146.65;37.96
57094;BME280;42970;50.996;3.706;2023-08-07T12:26:37;47177.91;;;-146.65;37.52
57094;BME280;42970;50.996;3.706;2023-08-07T12:29:02;47179.91;;;-146.65;38.67
57094;BME280;42970;50.996;3.706;2023-08-07T12:31:28;47181.91;;;-146.65;39.42
57094;BME280;42970;50.996;3.706;2023-08-07T12:33:54;47177.91;;;-146.65;39.83
57094;BME280;42970;50.996;3.706;2023-08-07T12:36:19;47177.91;;;-146.65;39.94
57094;BME280;42970;50.996;3.706;2023-08-07T12:38:45;47175.91;;;-146.65;42.94
57094;BME280;42970;50.996;3.706;2023-08-07T12:41:10;47175.91;;;-146.65;42.03
57094;BME280;42970;50.996;3.706;2023-08-07T12:43:36;47173.91;;;-146.65;44.05
57094;BME280;42970;50.996;3.706;2023-08-07T12:46:01;47177.91;;;-146.65;42.66